桃園國際機場 - 塔臺(二站)

METAR RCTP 310830Z 30012KT 9999 FEW016 SCT023 30/26 Q1009 NOSIG RMK A2981=

站台狀態:Offline
最後更新:2020-05-31 16:30:01